Peabody, KS (66866)

3:26 AM CST on December 25, 2014 (GMT -0600)
Goessel Goerzen Corner | Change Station
CLOSE
Current Station
Personal Weather Station
Location: Goessel, KS
Elevation: 1539 ft
Nearby Weather Stations
Active Advisory: Wind Advisory

Elev 1539 ft 38.19 °N, 97.30 °W | Updated 7 seconds ago

Partly Cloudy
Partly Cloudy
33.5 °F
Feels Like 26 °F
N
9.0
Wind Variable Wind from SSE
Gusts 9.0 mph

Today
High -- | Low -- °F
--% Chance of Precip.
Yesterday
High -- | Low -- °F
Precip. -- in
7:43 AM 5:14 PM
Waxing Crescent, 15% visible
Pressure 29.73 in
Visibility 10.0 miles
Clouds Clear
Windchill 26 °F
Dew Point 26 °F
Humidity 74%
Rainfall 0.00 in
Snow Depth Not available.
UV 0 out of 12
Pollen .10 out of 12
Air Quality Not available.
Flu Activity Not available.
METAR KEWK 250915Z AUTO 18013KT 10SM CLR 01/M07 A2973 RMK AO1

More Conditions Fewer Conditions

Pressure 29.73 in
Visibility 10.0 miles
Clouds Clear
Windchill 26 °F
Dew Point 26 °F
Humidity 74%
Rainfall 0.00 in
Snow Depth Not available.
UV 0 out of 12
Pollen .10 out of 12
Air Quality Not available.
Flu Activity Not available.
METAR KEWK 250915Z AUTO 18013KT 10SM CLR 01/M07 A2973 RMK AO1

More Conditions Fewer Conditions

10-Day Weather Forecast

Almanac

Astronomy

Dec. 25, 2014 Rise Set
Actual Time
Civil Twilight
Nautical Twilight
Astronomical Twilight
Moon
Length of Visible Light
Length of Day
Tomorrow will be .
, % of the Moon is Illuminated

Today's Extremes

State Highs State Lows

Community

WunderPhotos

Upload Photos

1,780,252 photos uploaded!

WunderBlogs® & News

Nearby

Air Quality

  Air Quality AQ Index Pollutant
Not available.

Snow Depth

Station Depth Elevation

Earthquake Activity

City Distance Mag. Time & Date
Minimum magnitude displayed is 2.5.

Coastal Water Temperatures

Place Temperature

Nearby Weather Stations